Time;durP1;ratioP1;P1;durP2;ratioP2;P2;SDS_P1;SDS_P2;PMS_P1;PMS_P2;Temp;Humidity;BMP_temperature;BMP_pressure;BME280_temperature;BME280_humidity;BME280_pressure;Samples;Min_cycle;Max_cycle;Signal;HPM_P1;HPM_P2
2022/10/26 00:01:12;;;;;;;0.15;0.15;;;10.80;99.90;;;;;;5062377;28;20029;-78
2022/10/26 00:03:39;;;;;;;0.10;0.10;;;10.80;99.90;;;;;;5064620;28;20013;-77
2022/10/26 00:06:15;;;;;;;0.00;0.00;;;10.80;99.90;;;;;;5044805;28;20025;-77
2022/10/26 00:08:42;;;;;;;0.10;0.10;;;10.80;99.90;;;;;;5046109;28;20105;-78
2022/10/26 00:11:28;;;;;;;7.05;6.70;;;10.80;99.90;;;;;;5045545;28;20058;-77
2022/10/26 00:13:54;;;;;;;0.10;0.10;;;10.80;99.90;;;;;;5041479;28;20466;-78
2022/10/26 00:16:25;;;;;;;0.10;0.10;;;10.70;99.90;;;;;;5062477;28;20021;-78
2022/10/26 00:18:51;;;;;;;0.10;0.10;;;10.80;99.90;;;;;;5057916;28;20033;-77
2022/10/26 00:21:18;;;;;;;14.05;11.60;;;10.70;99.90;;;;;;5062931;28;20021;-78
2022/10/26 00:23:43;;;;;;;0.10;0.10;;;10.70;99.90;;;;;;5062107;28;20484;-77
2022/10/26 00:26:09;;;;;;;0.30;0.30;;;10.70;99.90;;;;;;5040576;28;20043;-78
2022/10/26 00:28:35;;;;;;;0.10;0.10;;;10.70;99.90;;;;;;5064558;28;20048;-78
2022/10/26 00:31:03;;;;;;;1.92;1.77;;;10.70;99.90;;;;;;5063231;28;20033;-77
2022/10/26 00:33:32;;;;;;;0.10;0.10;;;10.60;99.90;;;;;;5058330;28;20036;-78
2022/10/26 00:35:58;;;;;;;3.33;3.22;;;10.60;99.90;;;;;;5057788;28;20028;-78
2022/10/26 00:38:24;;;;;;;0.20;0.20;;;10.60;99.90;;;;;;5061647;28;20089;-78
2022/10/26 00:40:50;;;;;;;0.10;0.10;;;10.50;99.90;;;;;;5062442;28;20031;-78
2022/10/26 00:43:22;;;;;;;2.50;2.40;;;10.50;99.90;;;;;;5062348;28;20021;-77
2022/10/26 00:45:55;;;;;;;0.43;0.43;;;10.50;99.90;;;;;;5061490;28;20024;-78
2022/10/26 00:48:25;;;;;;;0.05;0.05;;;10.50;99.90;;;;;;5061238;28;20029;-78
2022/10/26 00:50:57;;;;;;;1.50;1.40;;;10.40;99.90;;;;;;5065222;28;20044;-79
2022/10/26 00:53:23;;;;;;;0.05;0.05;;;10.50;99.90;;;;;;5058257;28;20029;-78
2022/10/26 00:55:51;;;;;;;0.10;0.10;;;11.00;99.90;;;;;;5058291;28;20035;-78
2022/10/26 00:58:20;;;;;;;18.65;17.10;;;10.30;99.90;;;;;;5058220;28;20017;-77
2022/10/26 01:00:47;;;;;;;0.47;0.47;;;10.30;99.90;;;;;;5061723;28;20100;-77
2022/10/26 01:03:14;;;;;;;0.10;0.10;;;10.30;99.90;;;;;;5057984;28;20021;-78
2022/10/26 01:05:46;;;;;;;0.10;0.10;;;10.30;99.90;;;;;;5061761;28;20041;-78
2022/10/26 01:08:15;;;;;;;0.10;0.10;;;10.30;99.90;;;;;;5043842;28;20310;-78
2022/10/26 01:10:41;;;;;;;0.10;0.10;;;10.30;99.90;;;;;;5064931;28;20047;-77
2022/10/26 01:13:10;;;;;;;0.10;0.10;;;10.30;99.90;;;;;;5042832;28;20102;-77
2022/10/26 01:15:56;;;;;;;0.20;0.20;;;10.20;99.90;;;;;;5043593;28;20033;-78
2022/10/26 01:19:10;;;;;;;0.10;0.10;;;10.20;99.90;;;;;;5058589;28;20025;-77
2022/10/26 01:21:44;;;;;;;0.10;0.10;;;10.20;99.90;;;;;;5036843;28;20066;-78
2022/10/26 01:24:31;;;;;;;0.45;0.45;;;8.60;99.90;;;;;;5062364;28;20025;-77
2022/10/26 01:27:38;;;;;;;0.10;0.10;;;9.90;99.90;;;;;;5057097;28;20361;-78
2022/10/26 01:30:19;;;;;;;0.10;0.10;;;9.90;99.90;;;;;;5058709;28;20111;-78
2022/10/26 01:33:21;;;;;;;0.10;0.10;;;9.90;99.90;;;;;;5041124;28;20029;-77
2022/10/26 01:35:51;;;;;;;0.28;0.28;;;9.90;99.90;;;;;;5059836;28;20243;-78
2022/10/26 01:38:52;;;;;;;0.00;0.00;;;10.00;99.90;;;;;;5058821;28;20024;-78
2022/10/26 01:41:36;;;;;;;0.00;0.00;;;9.90;99.90;;;;;;4951597;28;20039;-83
2022/10/26 01:44:13;;;;;;;0.00;0.00;;;9.90;99.90;;;;;;4952817;29;20055;-78
2022/10/26 01:46:43;;;;;;;0.00;0.00;;;9.90;99.90;;;;;;4954935;28;20031;-79
2022/10/26 01:49:11;;;;;;;0.10;0.10;;;9.90;99.90;;;;;;4959078;29;20059;-79
2022/10/26 01:51:48;;;;;;;0.10;0.10;;;9.90;99.90;;;;;;4958830;28;20089;-78
2022/10/26 01:54:14;;;;;;;0.10;0.10;;;9.90;99.90;;;;;;4959674;28;20035;-78
2022/10/26 01:56:48;;;;;;;0.00;0.00;;;11.50;99.90;;;;;;4960878;29;20019;-77
2022/10/26 01:59:41;;;;;;;0.10;0.10;;;9.90;99.90;;;;;;4957777;29;20075;-78
2022/10/26 02:02:41;;;;;;;10.43;9.95;;;9.80;99.90;;;;;;4959242;28;20066;-78
2022/10/26 02:05:13;;;;;;;0.10;0.10;;;9.90;99.90;;;;;;4962660;29;20030;-78
2022/10/26 02:07:57;;;;;;;0.20;0.20;;;9.80;99.90;;;;;;4958810;28;20027;-78
2022/10/26 02:10:31;;;;;;;0.15;0.15;;;9.80;99.90;;;;;;4960693;29;20039;-78
2022/10/26 02:13:02;;;;;;;14.43;13.57;;;9.80;99.90;;;;;;4955069;28;20048;-78
2022/10/26 02:16:03;;;;;;;0.10;0.10;;;9.80;99.90;;;;;;4943162;28;20036;-78
2022/10/26 02:18:49;;;;;;;0.10;0.10;;;9.80;99.90;;;;;;5040954;28;20041;-78
2022/10/26 02:21:25;;;;;;;0.00;0.00;;;9.80;99.90;;;;;;5058516;28;20029;-77
2022/10/26 02:23:54;;;;;;;0.03;0.03;;;9.70;99.90;;;;;;5057418;28;20061;-78
2022/10/26 02:26:31;;;;;;;0.10;0.10;;;9.70;99.90;;;;;;5058087;28;20310;-78
2022/10/26 02:29:02;;;;;;;0.10;0.10;;;10.40;99.90;;;;;;5055150;28;20265;-78
2022/10/26 02:31:29;;;;;;;0.38;0.38;;;9.70;99.90;;;;;;5044362;28;20025;-78
2022/10/26 02:33:57;;;;;;;0.10;0.10;;;9.70;99.90;;;;;;5045461;28;20022;-77
2022/10/26 02:36:28;;;;;;;0.00;0.00;;;9.70;99.90;;;;;;5043799;28;20033;-78
2022/10/26 02:38:56;;;;;;;0.00;0.00;;;9.70;99.90;;;;;;5045261;28;20029;-77
2022/10/26 02:41:25;;;;;;;0.10;0.10;;;9.70;99.90;;;;;;5044807;28;20268;-78
2022/10/26 02:43:57;;;;;;;0.10;0.10;;;9.70;99.90;;;;;;5030214;28;20017;-77
2022/10/26 02:46:26;;;;;;;0.10;0.10;;;9.70;99.90;;;;;;5059692;28;20338;-78
2022/10/26 02:48:52;;;;;;;0.10;0.10;;;9.70;99.90;;;;;;5042066;28;20001;-78
2022/10/26 02:51:33;;;;;;;0.10;0.10;;;9.60;99.90;;;;;;5059188;28;20039;-78
2022/10/26 02:54:30;;;;;;;0.00;0.00;;;9.60;99.90;;;;;;5058821;28;20102;-79
2022/10/26 02:57:15;;;;;;;0.40;0.40;;;9.60;99.90;;;;;;5041820;28;20103;-78
2022/10/26 02:59:43;;;;;;;0.00;0.00;;;9.60;99.90;;;;;;5064695;28;20047;-78
2022/10/26 03:02:11;;;;;;;0.30;0.30;;;9.60;99.90;;;;;;5070653;28;20093;-78
2022/10/26 03:14:58;;;;;;;0.00;0.00;;;9.50;99.90;;;;;;5623864;22;20080;-77
2022/10/26 03:17:24;;;;;;;0.10;0.10;;;9.20;99.90;;;;;;5047177;28;20029;-78
2022/10/26 03:19:50;;;;;;;2.92;2.83;;;9.50;99.90;;;;;;5026974;28;20427;-78
2022/10/26 03:22:15;;;;;;;0.03;0.03;;;9.50;99.90;;;;;;5025113;28;20057;-77
2022/10/26 03:24:41;;;;;;;0.00;0.00;;;9.50;99.90;;;;;;5023714;28;20025;-77
2022/10/26 03:27:07;;;;;;;0.10;0.10;;;9.50;99.90;;;;;;5044207;28;20048;-79
2022/10/26 03:29:33;;;;;;;0.10;0.10;;;9.50;99.90;;;;;;5042151;28;20017;-77
2022/10/26 03:32:01;;;;;;;0.10;0.10;;;9.50;99.90;;;;;;5040986;28;20006;-78
2022/10/26 03:34:30;;;;;;;0.43;0.43;;;9.30;99.90;;;;;;5043053;28;20374;-78
2022/10/26 03:36:56;;;;;;;1.35;1.35;;;9.40;99.90;;;;;;5042934;28;20036;-77
2022/10/26 03:39:22;;;;;;;0.10;0.10;;;9.40;99.90;;;;;;5042403;28;20032;-78
2022/10/26 03:41:49;;;;;;;0.08;0.08;;;9.40;99.90;;;;;;5040176;28;20034;-79
2022/10/26 03:44:15;;;;;;;15.43;14.68;;;9.40;99.90;;;;;;5044666;28;20018;-79
2022/10/26 03:46:41;;;;;;;0.03;0.03;;;9.30;99.90;;;;;;5043351;28;20017;-78
2022/10/26 03:49:08;;;;;;;4.47;4.22;;;9.30;99.90;;;;;;5026919;28;20018;-78
2022/10/26 03:51:34;;;;;;;0.30;0.30;;;9.30;99.90;;;;;;5044812;28;20087;-78
2022/10/26 03:53:59;;;;;;;2.88;2.75;;;9.20;99.90;;;;;;5044225;28;20037;-79
2022/10/26 03:56:27;;;;;;;0.08;0.08;;;9.20;99.90;;;;;;5025159;28;20033;-78
2022/10/26 03:58:55;;;;;;;0.10;0.10;;;9.10;99.90;;;;;;5045604;28;20029;-78
2022/10/26 04:01:22;;;;;;;0.00;0.00;;;9.20;99.90;;;;;;5026980;28;20123;-78
2022/10/26 04:03:51;;;;;;;0.08;0.08;;;9.20;99.90;;;;;;5039235;28;20049;-79
2022/10/26 04:06:16;;;;;;;0.03;0.03;;;9.10;99.90;;;;;;5036033;28;20037;-79
2022/10/26 04:08:42;;;;;;;0.10;0.10;;;9.10;99.90;;;;;;5038012;28;20025;-78
2022/10/26 04:11:08;;;;;;;0.00;0.00;;;9.10;99.90;;;;;;5033175;28;20022;-81
2022/10/26 04:13:34;;;;;;;0.10;0.10;;;9.10;99.90;;;;;;5029001;28;20056;-78
2022/10/26 04:15:59;;;;;;;0.10;0.10;;;9.00;99.90;;;;;;5024841;28;20508;-78
2022/10/26 04:18:25;;;;;;;0.10;0.10;;;9.00;99.90;;;;;;5024980;28;20365;-77
2022/10/26 04:20:51;;;;;;;0.20;0.20;;;9.00;99.90;;;;;;5008581;28;20400;-77
2022/10/26 04:23:18;;;;;;;0.22;0.22;;;9.00;99.90;;;;;;5026947;28;20032;-77
2022/10/26 04:25:44;;;;;;;0.00;0.00;;;8.90;99.90;;;;;;5012440;28;20025;-78
2022/10/26 04:28:11;;;;;;;0.20;0.20;;;8.90;99.90;;;;;;5031951;28;20022;-78
2022/10/26 04:30:37;;;;;;;0.00;0.00;;;8.90;99.90;;;;;;5042782;28;20025;-78
2022/10/26 04:33:09;;;;;;;0.10;0.10;;;9.00;99.90;;;;;;5045834;28;20018;-77
2022/10/26 04:35:36;;;;;;;0.00;0.00;;;9.00;99.90;;;;;;5044849;28;20105;-78
2022/10/26 04:38:05;;;;;;;0.10;0.10;;;8.90;99.90;;;;;;5044577;28;20480;-78
2022/10/26 04:40:32;;;;;;;0.08;0.08;;;8.90;99.90;;;;;;5041915;28;20018;-78
2022/10/26 04:43:21;;;;;;;1.17;1.17;;;8.80;99.90;;;;;;5030747;28;20005;-76
2022/10/26 04:45:46;;;;;;;0.03;0.03;;;8.90;99.90;;;;;;5050877;28;20025;-79
2022/10/26 04:48:13;;;;;;;0.00;0.00;;;8.80;99.90;;;;;;5041968;28;20084;-78
2022/10/26 04:50:39;;;;;;;0.30;0.30;;;8.80;99.90;;;;;;5312672;22;20050;-77
2022/10/26 04:53:06;;;;;;;0.10;0.10;;;8.80;99.90;;;;;;5047012;28;20041;-77
2022/10/26 04:55:32;;;;;;;0.10;0.10;;;8.40;99.90;;;;;;5049561;28;20060;-77
2022/10/26 04:58:02;;;;;;;1.38;1.38;;;8.80;99.90;;;;;;5031671;28;20029;-78
2022/10/26 05:00:31;;;;;;;0.10;0.10;;;8.80;99.90;;;;;;5048616;28;20395;-78
2022/10/26 05:03:01;;;;;;;0.68;0.68;;;8.80;99.90;;;;;;5043046;28;20028;-78
2022/10/26 05:05:31;;;;;;;0.25;0.25;;;8.80;99.90;;;;;;5043271;28;20025;-77
2022/10/26 05:07:57;;;;;;;0.63;0.60;;;8.90;99.90;;;;;;5043245;28;20059;-78
2022/10/26 05:10:23;;;;;;;0.20;0.20;;;8.80;99.90;;;;;;5043027;28;20229;-77
2022/10/26 05:12:51;;;;;;;0.10;0.10;;;8.80;99.90;;;;;;5024080;28;20064;-78
2022/10/26 05:15:16;;;;;;;0.00;0.00;;;8.80;99.90;;;;;;5024742;28;20401;-77
2022/10/26 05:17:42;;;;;;;0.00;0.00;;;8.80;99.90;;;;;;5044443;28;20527;-78
2022/10/26 05:20:12;;;;;;;0.08;0.08;;;8.70;99.90;;;;;;5053664;28;20525;-78
2022/10/26 05:22:38;;;;;;;0.10;0.10;;;8.70;99.90;;;;;;5044086;28;20021;-78
2022/10/26 05:25:07;;;;;;;0.10;0.10;;;8.70;99.90;;;;;;5048313;28;20044;-78
2022/10/26 05:27:33;;;;;;;0.08;0.08;;;8.70;99.90;;;;;;5026304;28;20456;-77
2022/10/26 05:29:59;;;;;;;0.08;0.08;;;8.70;99.90;;;;;;5054836;28;20036;-77
2022/10/26 05:32:25;;;;;;;0.10;0.10;;;8.70;99.90;;;;;;5023317;28;20045;-77
2022/10/26 05:42:05;;;;;;;1.40;1.35;;;7.90;99.90;;;;;;5040427;28;20044;-77
2022/10/26 05:44:49;;;;;;;0.00;0.00;;;8.70;99.90;;;;;;5041165;28;20020;-77
2022/10/26 05:47:42;;;;;;;0.10;0.10;;;8.90;99.90;;;;;;5046767;28;20520;-77
2022/10/26 05:50:26;;;;;;;0.20;0.20;;;8.70;99.90;;;;;;5048324;28;20104;-78
2022/10/26 05:52:51;;;;;;;0.10;0.10;;;8.70;99.90;;;;;;5007957;28;20353;-77
2022/10/26 05:55:18;;;;;;;0.00;0.00;;;8.80;99.90;;;;;;5007169;28;20030;-77
2022/10/26 05:57:44;;;;;;;0.10;0.10;;;8.80;99.90;;;;;;5007350;28;20409;-78
2022/10/26 06:00:29;;;;;;;0.00;0.00;;;8.90;99.90;;;;;;5007907;28;20085;-77
2022/10/26 06:03:07;;;;;;;0.00;0.00;;;9.00;99.90;;;;;;5014887;28;20022;-77
2022/10/26 06:05:49;;;;;;;0.08;0.08;;;9.00;99.90;;;;;;5009753;28;20022;-77
2022/10/26 06:08:15;;;;;;;0.10;0.10;;;9.00;99.90;;;;;;5017711;28;20086;-78
2022/10/26 06:10:41;;;;;;;0.10;0.10;;;9.00;99.90;;;;;;5008689;28;20030;-77
2022/10/26 06:13:07;;;;;;;0.17;0.17;;;9.10;99.90;;;;;;5006473;28;20539;-78
2022/10/26 06:15:44;;;;;;;0.10;0.10;;;9.10;99.90;;;;;;5009639;28;20152;-78
2022/10/26 06:18:45;;;;;;;0.10;0.10;;;9.20;99.90;;;;;;5009032;28;20061;-77
2022/10/26 06:21:38;;;;;;;0.00;0.00;;;9.30;99.90;;;;;;5011900;28;20042;-77
2022/10/26 06:24:09;;;;;;;0.10;0.10;;;11.10;99.90;;;;;;5020255;28;20029;-78
2022/10/26 06:26:39;;;;;;;0.08;0.08;;;9.40;99.90;;;;;;5019783;28;20042;-78
2022/10/26 06:29:32;;;;;;;0.20;0.20;;;9.50;99.90;;;;;;5013781;28;20045;-79
2022/10/26 06:31:59;;;;;;;0.00;0.00;;;9.50;99.90;;;;;;5001963;28;20030;-78
2022/10/26 06:34:32;;;;;;;0.10;0.10;;;9.60;99.90;;;;;;5005961;28;20056;-78
2022/10/26 06:36:59;;;;;;;0.60;0.60;;;9.70;99.90;;;;;;5006007;28;20097;-77
2022/10/26 06:39:29;;;;;;;0.10;0.10;;;9.70;99.90;;;;;;5007850;28;20026;-77
2022/10/26 06:41:56;;;;;;;0.80;0.80;;;9.80;99.90;;;;;;5011227;28;20026;-77
2022/10/26 06:44:23;;;;;;;0.10;0.10;;;9.80;99.90;;;;;;5009535;28;20025;-78
2022/10/26 06:47:13;;;;;;;0.38;0.38;;;9.90;99.90;;;;;;5006008;28;20030;-78
2022/10/26 06:49:50;;;;;;;0.10;0.10;;;10.00;99.90;;;;;;5009233;28;20026;-77
2022/10/26 06:52:38;;;;;;;0.10;0.10;;;10.10;99.90;;;;;;5041111;28;20092;-77
2022/10/26 06:55:05;;;;;;;0.10;0.10;;;10.20;99.90;;;;;;5047936;28;20017;-78
2022/10/26 06:57:36;;;;;;;0.10;0.10;;;10.30;99.90;;;;;;5047740;28;20032;-78
2022/10/26 07:00:14;;;;;;;2.38;2.28;;;10.40;99.90;;;;;;5049580;28;20021;-78
2022/10/26 07:02:40;;;;;;;0.10;0.10;;;10.50;99.90;;;;;;5038330;28;20036;-79
2022/10/26 07:05:11;;;;;;;0.20;0.20;;;10.60;99.90;;;;;;5047729;28;20025;-89
2022/10/26 07:07:41;;;;;;;1.85;1.75;;;10.70;99.90;;;;;;5050053;28;20016;-78
2022/10/26 07:10:09;;;;;;;0.13;0.13;;;10.70;99.90;;;;;;5048588;28;20384;-78
2022/10/26 07:12:36;;;;;;;1.52;1.52;;;10.80;99.90;;;;;;5046748;28;20068;-79
2022/10/26 07:15:01;;;;;;;0.10;0.10;;;10.80;99.90;;;;;;5047036;28;20021;-78
2022/10/26 07:17:45;;;;;;;0.25;0.25;;;10.90;99.90;;;;;;5048369;28;20032;-78
2022/10/26 07:20:34;;;;;;;0.43;0.43;;;11.00;99.90;;;;;;5066478;28;20017;-88
2022/10/26 07:23:00;;;;;;;0.10;0.10;;;11.20;99.90;;;;;;5059871;28;20033;-78
2022/10/26 07:25:26;;;;;;;0.10;0.10;;;11.20;99.90;;;;;;5059258;28;20394;-80
2022/10/26 07:27:55;;;;;;;0.38;0.38;;;11.40;99.90;;;;;;5039454;28;20545;-82
2022/10/26 07:30:21;;;;;;;0.10;0.10;;;11.00;99.90;;;;;;5035430;28;20523;-79
2022/10/26 07:32:47;;;;;;;0.20;0.20;;;11.60;99.90;;;;;;5029751;28;20349;-77
2022/10/26 07:35:13;;;;;;;1.70;1.67;;;11.70;99.90;;;;;;5039952;28;20087;-78
2022/10/26 07:37:39;;;;;;;0.30;0.30;;;11.80;99.90;;;;;;5040106;28;20025;-78
2022/10/26 07:40:06;;;;;;;0.10;0.10;;;12.00;99.90;;;;;;5040182;28;20111;-78
2022/10/26 07:42:31;;;;;;;0.32;0.32;;;12.20;99.90;;;;;;5040065;28;20025;-80
2022/10/26 07:44:57;;;;;;;0.13;0.13;;;12.30;99.90;;;;;;5039230;28;20013;-77
2022/10/26 07:47:23;;;;;;;1.02;1.02;;;12.40;99.90;;;;;;5039580;28;20527;-80
2022/10/26 07:49:49;;;;;;;0.93;0.90;;;12.60;99.90;;;;;;5039894;28;20025;-82
2022/10/26 07:52:14;;;;;;;0.10;0.10;;;12.80;99.90;;;;;;5040028;28;20059;-78
2022/10/26 07:54:40;;;;;;;1.05;1.05;;;12.90;99.90;;;;;;5039779;28;20017;-78
2022/10/26 07:57:06;;;;;;;0.40;0.40;;;13.10;99.90;;;;;;5039697;28;20060;-79
2022/10/26 07:59:32;;;;;;;0.50;0.50;;;13.10;99.90;;;;;;5039785;28;20077;-80
2022/10/26 08:01:57;;;;;;;0.98;0.98;;;13.20;99.90;;;;;;5039437;28;20499;-79
2022/10/26 08:04:23;;;;;;;2.53;2.42;;;13.20;99.90;;;;;;5039399;28;20447;-78
2022/10/26 08:06:49;;;;;;;0.70;0.70;;;13.40;99.90;;;;;;5039522;28;20029;-78
2022/10/26 08:09:14;;;;;;;0.73;0.73;;;13.60;99.90;;;;;;5039751;28;20045;-81
2022/10/26 08:11:40;;;;;;;1.20;1.20;;;13.90;99.90;;;;;;5039715;28;20545;-79
2022/10/26 08:14:06;;;;;;;3.50;3.40;;;14.00;99.90;;;;;;5040043;28;20037;-81
2022/10/26 08:16:33;;;;;;;0.20;0.20;;;14.10;99.90;;;;;;5039564;28;20021;-88
2022/10/26 08:18:59;;;;;;;2.05;1.95;;;14.20;99.90;;;;;;5039845;28;20029;-85
2022/10/26 08:21:25;;;;;;;0.30;0.30;;;14.40;99.90;;;;;;5039977;28;20021;-79
2022/10/26 08:23:51;;;;;;;4.28;3.85;;;14.50;99.90;;;;;;5021738;28;20536;-92
2022/10/26 08:26:17;;;;;;;0.30;0.30;;;14.60;99.90;;;;;;5039340;28;20033;-76
2022/10/26 08:28:43;;;;;;;0.30;0.30;;;14.80;99.90;;;;;;5039836;28;20162;-76
2022/10/26 08:31:08;;;;;;;10.65;4.93;;;14.70;99.90;;;;;;5038467;28;20124;-76
2022/10/26 08:33:34;;;;;;;0.47;0.47;;;14.80;99.90;;;;;;5020787;28;20095;-75
2022/10/26 08:36:04;;;;;;;4.85;4.22;;;14.80;99.90;;;;;;5038782;28;20108;-76
2022/10/26 08:38:32;;;;;;;1.48;1.48;;;15.00;99.90;;;;;;5020806;28;20557;-76
2022/10/26 08:41:04;;;;;;;2.63;2.50;;;15.20;99.90;;;;;;5040029;28;20043;-77
2022/10/26 08:43:39;;;;;;;0.40;0.40;;;15.10;99.90;;;;;;5039122;28;20029;-87
2022/10/26 08:46:14;;;;;;;1.27;1.27;;;15.30;99.90;;;;;;5038931;28;20675;-91
2022/10/26 08:48:49;;;;;;;2.58;2.47;;;15.50;99.90;;;;;;5020367;28;20131;-75
2022/10/26 08:51:29;;;;;;;0.20;0.20;;;15.60;99.90;;;;;;5038528;28;20037;-76
2022/10/26 08:54:01;;;;;;;1.27;1.05;;;15.70;99.90;;;;;;5038566;28;20037;-77
2022/10/26 08:56:34;;;;;;;1.38;1.13;;;15.70;99.90;;;;;;5037804;28;20017;-76
2022/10/26 08:59:34;;;;;;;0.57;0.57;;;15.70;99.90;;;;;;5038288;28;20097;-77
2022/10/26 09:02:01;;;;;;;5.65;5.25;;;15.70;99.90;;;;;;5038405;28;20064;-76
2022/10/26 09:04:28;;;;;;;0.60;0.60;;;15.70;99.90;;;;;;5038798;28;20024;-80
2022/10/26 09:07:32;;;;;;;3.20;3.10;;;15.70;99.90;;;;;;5039556;28;20511;-82
2022/10/26 09:09:57;;;;;;;0.20;0.20;;;15.70;99.90;;;;;;5021531;28;20024;-77
2022/10/26 09:12:38;;;;;;;17.63;8.60;;;16.00;99.90;;;;;;5039674;28;20276;-78
2022/10/26 09:15:18;;;;;;;5.10;4.70;;;16.20;99.90;;;;;;5020194;28;20028;-80
2022/10/26 09:18:17;;;;;;;2.72;2.53;;;16.40;99.90;;;;;;5038490;28;20017;-76
2022/10/26 09:21:21;;;;;;;0.20;0.20;;;16.40;99.90;;;;;;5004755;28;20033;-75
2022/10/26 09:24:01;;;;;;;0.10;0.10;;;16.50;99.90;;;;;;5037941;28;20024;-77
2022/10/26 09:26:44;;;;;;;14.18;3.58;;;16.60;99.90;;;;;;5020939;28;20017;-76
2022/10/26 09:29:13;;;;;;;0.40;0.40;;;16.30;99.90;;;;;;5038539;28;20263;-84
2022/10/26 09:31:43;;;;;;;2.00;1.95;;;16.40;99.90;;;;;;5020213;28;20037;-77
2022/10/26 09:34:20;;;;;;;0.10;0.10;;;16.70;99.90;;;;;;5038648;28;20670;-76
2022/10/26 09:36:46;;;;;;;2.63;1.65;;;16.80;99.90;;;;;;5021825;28;20226;-77
2022/10/26 09:39:37;;;;;;;0.20;0.20;;;16.90;99.90;;;;;;5021281;28;20036;-81
2022/10/26 09:42:20;;;;;;;10.02;9.32;;;17.00;99.90;;;;;;5020774;28;20504;-88
2022/10/26 09:45:12;;;;;;;0.10;0.10;;;17.30;99.90;;;;;;5038876;28;20083;-87
2022/10/26 09:47:41;;;;;;;1.05;0.98;;;17.40;99.90;;;;;;5021237;28;20032;-83
2022/10/26 09:50:33;;;;;;;0.20;0.20;;;17.50;99.90;;;;;;5021639;28;20484;-81
2022/10/26 09:52:58;;;;;;;0.85;0.85;;;17.50;99.90;;;;;;4905814;29;20048;-80
2022/10/26 09:55:26;;;;;;;0.20;0.20;;;17.80;99.90;;;;;;4918971;29;20228;-86
2022/10/26 09:57:56;;;;;;;1.48;1.40;;;17.90;99.90;;;;;;4902788;29;20036;-79
2022/10/26 10:00:23;;;;;;;1.13;1.10;;;18.10;99.90;;;;;;4918804;29;20111;-80
2022/10/26 10:02:56;;;;;;;0.30;0.30;;;18.30;99.90;;;;;;4902412;29;20071;-80
2022/10/26 10:05:32;;;;;;;1.20;1.13;;;18.40;99.90;;;;;;4904023;29;20087;-80
2022/10/26 10:08:10;;;;;;;0.30;0.30;;;18.70;99.90;;;;;;4917557;29;20043;-80
2022/10/26 10:10:36;;;;;;;0.52;0.52;;;18.80;99.90;;;;;;4917828;29;20036;-81
2022/10/26 10:13:21;;;;;;;0.55;0.55;;;18.90;99.90;;;;;;4917757;29;20031;-86
2022/10/26 10:15:53;;;;;;;3.25;2.70;;;19.00;99.90;;;;;;4917633;29;20059;-80
2022/10/26 10:18:56;;;;;;;1.27;1.02;;;19.20;99.90;;;;;;4901246;29;20141;-79
2022/10/26 10:25:00;;;;;;;0.57;0.57;;;19.50;99.90;;;;;;4917277;29;20054;-86
2022/10/26 10:27:27;;;;;;;2.60;2.40;;;19.80;99.80;;;;;;4916963;29;20036;-80
2022/10/26 10:29:55;;;;;;;1.63;0.98;;;19.60;99.60;;;;;;4951627;28;20307;-82
2022/10/26 10:32:26;;;;;;;0.68;0.68;;;19.80;99.30;;;;;;4996115;28;20056;-77
2022/10/26 10:34:57;;;;;;;1.15;1.05;;;19.60;99.60;;;;;;4997201;28;20026;-80
2022/10/26 10:37:43;;;;;;;5.47;5.18;;;19.70;99.40;;;;;;4997875;28;20028;-79
2022/10/26 10:40:22;;;;;;;1.55;0.73;;;19.80;99.50;;;;;;4997798;28;20014;-80
2022/10/26 10:42:50;;;;;;;0.30;0.30;;;19.90;98.70;;;;;;4997601;28;20099;-84
2022/10/26 10:45:28;;;;;;;0.32;0.32;;;20.00;98.70;;;;;;4998438;28;20029;-79
2022/10/26 10:48:19;;;;;;;0.57;0.57;;;20.10;98.70;;;;;;4997955;28;20018;-80
2022/10/26 10:51:01;;;;;;;1.17;0.90;;;20.20;98.40;;;;;;4920556;29;20059;-79
2022/10/26 10:53:49;;;;;;;1.13;1.13;;;20.30;98.90;;;;;;4937027;29;20175;-78
2022/10/26 10:56:43;;;;;;;0.22;0.22;;;20.60;98.20;;;;;;4921616;29;20097;-81
2022/10/26 10:59:26;;;;;;;0.10;0.10;;;20.60;97.80;;;;;;4880537;29;20040;-83
2022/10/26 11:02:01;;;;;;;;;;;20.80;97.60;;;;;;4879980;29;20048;-78
2022/10/26 11:04:38;;;;;;;2.58;2.40;;;21.00;97.00;;;;;;4879787;29;19911;-82
2022/10/26 11:07:06;;;;;;;2.30;2.15;;;21.20;96.70;;;;;;4882952;29;20093;-81
2022/10/26 11:09:36;;;;;;;5.60;5.22;;;21.40;96.40;;;;;;4880390;29;20515;-79
2022/10/26 11:12:25;;;;;;;1.13;1.10;;;21.50;96.10;;;;;;4881465;29;20028;-80
2022/10/26 11:15:06;;;;;;;0.20;0.20;;;21.40;95.60;;;;;;4873821;29;20033;-83
2022/10/26 11:18:09;;;;;;;0.30;0.30;;;21.60;96.00;;;;;;4880030;29;20180;-83
2022/10/26 11:20:43;;;;;;;7.68;4.07;;;21.60;95.10;;;;;;4876396;29;20480;-79
2022/10/26 11:23:27;;;;;;;2.05;1.33;;;21.70;94.90;;;;;;4883604;29;20396;-78
2022/10/26 11:26:03;;;;;;;0.80;0.80;;;21.80;95.30;;;;;;4883578;29;20029;-79
2022/10/26 11:28:47;;;;;;;0.10;0.10;;;22.00;95.10;;;;;;4927765;29;20039;-81
2022/10/26 11:31:22;;;;;;;1.33;1.23;;;22.20;94.60;;;;;;4923485;29;20118;-79
2022/10/26 11:34:19;;;;;;;2.03;1.92;;;22.50;94.00;;;;;;4940017;29;20046;-78
2022/10/26 11:36:51;;;;;;;0.60;0.60;;;22.90;93.40;;;;;;5000078;28;20411;-82
2022/10/26 11:39:48;;;;;;;1.92;1.83;;;24.80;93.60;;;;;;5020372;28;20036;-78
2022/10/26 11:42:41;;;;;;;3.08;2.90;;;23.30;92.20;;;;;;5018098;28;20253;-88
2022/10/26 11:45:20;;;;;;;0.10;0.10;;;23.30;91.50;;;;;;5020566;28;20123;-92
2022/10/26 11:47:51;;;;;;;0.47;0.47;;;23.30;91.60;;;;;;5020479;28;20045;-81
2022/10/26 11:50:22;;;;;;;2.75;2.55;;;23.20;91.60;;;;;;5020274;28;20419;-78
2022/10/26 11:52:57;;;;;;;0.55;0.55;;;23.40;91.50;;;;;;5040119;28;20183;-83
2022/10/26 11:55:22;;;;;;;9.23;1.95;;;23.60;90.90;;;;;;5040473;28;20033;-79
2022/10/26 11:57:51;;;;;;;0.10;0.10;;;23.70;90.80;;;;;;5024064;28;20017;-79
2022/10/26 12:00:19;;;;;;;2.95;2.70;;;23.90;90.40;;;;;;5039743;28;20041;-78
2022/10/26 12:03:07;;;;;;;0.52;0.52;;;24.00;90.00;;;;;;5042559;28;20132;-82
2022/10/26 12:05:44;;;;;;;0.52;0.40;;;24.10;89.10;;;;;;5021974;28;20272;-81
2022/10/26 12:08:19;;;;;;;0.65;0.65;;;24.30;87.90;;;;;;5039822;28;20016;-78
2022/10/26 12:10:59;;;;;;;0.55;0.40;;;24.30;87.00;;;;;;5039940;28;20029;-86
2022/10/26 12:13:35;;;;;;;1.95;1.85;;;24.30;87.00;;;;;;5039711;28;20021;-79
2022/10/26 12:16:20;;;;;;;1.38;0.93;;;24.20;86.70;;;;;;5039166;28;20105;-81
2022/10/26 12:18:52;;;;;;;1.55;1.10;;;24.60;87.00;;;;;;5039228;28;20028;-80
2022/10/26 12:21:19;;;;;;;4.07;3.88;;;24.80;85.50;;;;;;5046171;28;20078;-84
2022/10/26 12:24:21;;;;;;;2.20;2.08;;;24.40;85.00;;;;;;5040443;28;20107;-79
2022/10/26 12:26:58;;;;;;;2.17;2.08;;;24.70;85.10;;;;;;5039114;28;20423;-78
2022/10/26 12:29:45;;;;;;;0.52;0.52;;;24.90;83.60;;;;;;5039904;28;20215;-78
2022/10/26 12:32:40;;;;;;;2.05;0.65;;;25.00;82.60;;;;;;5038947;28;20032;-80
2022/10/26 12:35:32;;;;;;;2.47;1.27;;;24.90;83.80;;;;;;5001092;28;20037;-76
2022/10/26 12:38:20;;;;;;;2.15;1.60;;;24.90;82.50;;;;;;5039313;28;20033;-76
2022/10/26 12:40:47;;;;;;;1.95;1.85;;;;;;;;;;4938005;28;20091;-81
2022/10/26 12:43:12;;;;;;;1.48;1.33;;;25.30;80.10;;;;;;4937738;29;20284;-78
2022/10/26 12:45:41;;;;;;;0.45;0.45;;;25.40;80.30;;;;;;4938949;29;20038;-79
2022/10/26 12:48:23;;;;;;;0.03;0.03;;;25.50;79.30;;;;;;4945664;29;20529;-80
2022/10/26 12:50:50;;;;;;;8.30;3.95;;;25.30;78.80;;;;;;4937540;29;20059;-82
2022/10/26 12:53:19;;;;;;;16.50;2.83;;;25.90;77.30;;;;;;4938230;29;20043;-77
2022/10/26 12:55:45;;;;;;;0.35;0.35;;;25.90;78.00;;;;;;4937915;29;20027;-77
2022/10/26 12:58:29;;;;;;;1.67;1.58;;;26.00;76.60;;;;;;4922250;29;20027;-77
2022/10/26 13:00:58;;;;;;;0.43;0.43;;;26.20;75.90;;;;;;4937444;29;20056;-77
2022/10/26 13:03:52;;;;;;;0.85;0.85;;;26.20;74.50;;;;;;4937451;29;20035;-76
2022/10/26 13:06:47;;;;;;;0.32;0.32;;;26.30;75.00;;;;;;4937709;29;20122;-80
2022/10/26 13:09:35;;;;;;;0.63;0.63;;;26.30;73.50;;;;;;4939062;29;20028;-83
2022/10/26 13:12:02;;;;;;;0.28;0.28;;;26.30;73.30;;;;;;4939370;29;20044;-83
2022/10/26 13:14:36;;;;;;;3.53;2.17;;;26.80;73.80;;;;;;4938149;29;20031;-77
2022/10/26 13:17:04;;;;;;;1.60;0.90;;;26.30;73.60;;;;;;4955582;28;20121;-77
2022/10/26 13:19:38;;;;;;;0.35;0.35;;;26.40;73.60;;;;;;5038665;28;20392;-78
2022/10/26 13:22:04;;;;;;;1.08;0.77;;;26.20;74.40;;;;;;5039270;28;20229;-79
2022/10/26 13:24:33;;;;;;;0.52;0.52;;;26.10;74.50;;;;;;5038628;28;20025;-84
2022/10/26 13:27:04;;;;;;;13.45;1.48;;;26.40;73.50;;;;;;5038587;28;20298;-84
2022/10/26 13:29:31;;;;;;;1.08;1.00;;;26.40;74.10;;;;;;5020378;28;20032;-80
2022/10/26 13:31:58;;;;;;;0.43;0.15;;;26.20;73.00;;;;;;5039532;28;20029;-83
2022/10/26 13:34:30;;;;;;;0.57;0.43;;;26.70;72.70;;;;;;5038171;28;20288;-77
2022/10/26 13:37:14;;;;;;;0.10;0.10;;;26.70;72.00;;;;;;5038904;28;20040;-78
2022/10/26 13:39:43;;;;;;;0.70;0.70;;;26.70;72.00;;;;;;5019833;28;20060;-77
2022/10/26 13:42:21;;;;;;;4.10;3.88;;;26.50;71.70;;;;;;5037299;28;20021;-79
2022/10/26 13:44:58;;;;;;;1.15;0.60;;;26.60;71.30;;;;;;5038064;28;20025;-77